Terminal Aerodrome Forecast
Issued by NWS

Home | Current Version | Previous Version | Text Only | Print | Product List | Glossary On
Versions: 1 2 3 4 5 6 7 8 9 10 11 12 13 14 15 16 17 18 19 20 21 22 23 24 25 26 27 28
000
FTUS43 KILX 190500
TAFDEC
TAF
KDEC 190530Z 1906/2006 00000KT 6SM BR FEW018 OVC050
     FM190800 36003KT P6SM BKN050
     FM191600 VRB03KT P6SM BKN050=

USA.gov is the U.S. government's official web portal to all federal, state and local government web resources and services.